sensor_id;sensor_type;location;lat;lon;timestamp;P1;durP1;ratioP1;P2;durP2;ratioP2
43809;SDS011;29440;48.208;11.162;2023-03-04T00:01:30;62.75;;;23.60;;
43809;SDS011;29440;48.208;11.162;2023-03-04T00:03:56;57.75;;;24.33;;
43809;SDS011;29440;48.208;11.162;2023-03-04T00:06:21;74.30;;;26.25;;
43809;SDS011;29440;48.208;11.162;2023-03-04T00:08:47;70.93;;;26.40;;
43809;SDS011;29440;48.208;11.162;2023-03-04T00:11:12;66.60;;;24.67;;
43809;SDS011;29440;48.208;11.162;2023-03-04T00:13:38;73.03;;;27.15;;
43809;SDS011;29440;48.208;11.162;2023-03-04T00:16:04;77.25;;;28.02;;
43809;SDS011;29440;48.208;11.162;2023-03-04T00:18:29;72.70;;;27.73;;
43809;SDS011;29440;48.208;11.162;2023-03-04T00:20:55;76.10;;;28.35;;
43809;SDS011;29440;48.208;11.162;2023-03-04T00:23:20;73.47;;;27.23;;
43809;SDS011;29440;48.208;11.162;2023-03-04T00:25:46;80.22;;;29.65;;
43809;SDS011;29440;48.208;11.162;2023-03-04T00:28:12;70.20;;;25.75;;
43809;SDS011;29440;48.208;11.162;2023-03-04T00:30:38;81.10;;;28.75;;
43809;SDS011;29440;48.208;11.162;2023-03-04T00:33:03;65.07;;;26.00;;
43809;SDS011;29440;48.208;11.162;2023-03-04T00:35:29;68.05;;;26.70;;
43809;SDS011;29440;48.208;11.162;2023-03-04T00:37:54;75.80;;;26.58;;
43809;SDS011;29440;48.208;11.162;2023-03-04T00:40:20;70.13;;;27.38;;
43809;SDS011;29440;48.208;11.162;2023-03-04T00:42:45;63.58;;;25.38;;
43809;SDS011;29440;48.208;11.162;2023-03-04T00:45:11;79.35;;;27.60;;
43809;SDS011;29440;48.208;11.162;2023-03-04T00:47:36;73.32;;;26.15;;
43809;SDS011;29440;48.208;11.162;2023-03-04T00:50:02;79.25;;;28.52;;
43809;SDS011;29440;48.208;11.162;2023-03-04T00:52:28;75.28;;;27.52;;
43809;SDS011;29440;48.208;11.162;2023-03-04T00:54:54;68.80;;;25.85;;
43809;SDS011;29440;48.208;11.162;2023-03-04T00:57:19;69.35;;;26.48;;
43809;SDS011;29440;48.208;11.162;2023-03-04T00:59:45;68.18;;;26.00;;
43809;SDS011;29440;48.208;11.162;2023-03-04T01:02:11;62.45;;;24.77;;
43809;SDS011;29440;48.208;11.162;2023-03-04T01:04:36;68.70;;;25.05;;
43809;SDS011;29440;48.208;11.162;2023-03-04T01:07:02;68.25;;;25.45;;
43809;SDS011;29440;48.208;11.162;2023-03-04T01:09:28;70.90;;;26.13;;
43809;SDS011;29440;48.208;11.162;2023-03-04T01:11:53;65.30;;;26.02;;
43809;SDS011;29440;48.208;11.162;2023-03-04T01:14:19;70.93;;;25.10;;
43809;SDS011;29440;48.208;11.162;2023-03-04T01:16:44;63.05;;;25.23;;
43809;SDS011;29440;48.208;11.162;2023-03-04T01:19:10;63.38;;;24.65;;
43809;SDS011;29440;48.208;11.162;2023-03-04T01:21:36;72.93;;;24.42;;
43809;SDS011;29440;48.208;11.162;2023-03-04T01:24:01;62.22;;;24.92;;
43809;SDS011;29440;48.208;11.162;2023-03-04T01:26:27;64.45;;;24.35;;
43809;SDS011;29440;48.208;11.162;2023-03-04T01:28:53;64.00;;;24.00;;
43809;SDS011;29440;48.208;11.162;2023-03-04T01:31:18;69.15;;;24.27;;
43809;SDS011;29440;48.208;11.162;2023-03-04T01:33:44;73.10;;;25.10;;
43809;SDS011;29440;48.208;11.162;2023-03-04T01:36:10;63.92;;;24.60;;
43809;SDS011;29440;48.208;11.162;2023-03-04T01:38:36;59.72;;;23.35;;
43809;SDS011;29440;48.208;11.162;2023-03-04T01:41:01;61.92;;;23.23;;
43809;SDS011;29440;48.208;11.162;2023-03-04T01:43:28;55.15;;;22.63;;
43809;SDS011;29440;48.208;11.162;2023-03-04T01:45:55;60.63;;;24.17;;
43809;SDS011;29440;48.208;11.162;2023-03-04T01:48:23;62.33;;;25.75;;
43809;SDS011;29440;48.208;11.162;2023-03-04T01:50:51;56.67;;;24.08;;
43809;SDS011;29440;48.208;11.162;2023-03-04T01:53:26;58.78;;;22.20;;
43809;SDS011;29440;48.208;11.162;2023-03-04T01:55:53;62.08;;;22.85;;
43809;SDS011;29440;48.208;11.162;2023-03-04T01:58:23;55.72;;;22.30;;
43809;SDS011;29440;48.208;11.162;2023-03-04T02:00:50;69.53;;;23.40;;
43809;SDS011;29440;48.208;11.162;2023-03-04T02:03:16;64.60;;;24.50;;
43809;SDS011;29440;48.208;11.162;2023-03-04T02:05:44;60.25;;;23.65;;
43809;SDS011;29440;48.208;11.162;2023-03-04T02:08:12;66.82;;;23.65;;
43809;SDS011;29440;48.208;11.162;2023-03-04T02:10:39;59.03;;;23.30;;
43809;SDS011;29440;48.208;11.162;2023-03-04T02:13:07;56.72;;;21.85;;
43809;SDS011;29440;48.208;11.162;2023-03-04T02:15:33;61.28;;;23.23;;
43809;SDS011;29440;48.208;11.162;2023-03-04T02:17:59;61.58;;;24.08;;
43809;SDS011;29440;48.208;11.162;2023-03-04T02:20:40;69.88;;;24.80;;
43809;SDS011;29440;48.208;11.162;2023-03-04T02:25:48;65.68;;;23.20;;
43809;SDS011;29440;48.208;11.162;2023-03-04T02:28:18;65.00;;;23.45;;
43809;SDS011;29440;48.208;11.162;2023-03-04T02:30:48;64.35;;;23.50;;
43809;SDS011;29440;48.208;11.162;2023-03-04T02:33:15;62.08;;;22.83;;
43809;SDS011;29440;48.208;11.162;2023-03-04T02:35:42;61.28;;;23.23;;
43809;SDS011;29440;48.208;11.162;2023-03-04T02:38:09;58.25;;;22.92;;
43809;SDS011;29440;48.208;11.162;2023-03-04T02:40:35;53.65;;;22.15;;
43809;SDS011;29440;48.208;11.162;2023-03-04T02:43:02;56.58;;;22.58;;
43809;SDS011;29440;48.208;11.162;2023-03-04T02:48:02;61.17;;;23.38;;
43809;SDS011;29440;48.208;11.162;2023-03-04T02:50:29;58.20;;;21.88;;
43809;SDS011;29440;48.208;11.162;2023-03-04T02:52:57;55.92;;;21.50;;
43809;SDS011;29440;48.208;11.162;2023-03-04T02:55:23;64.50;;;23.38;;
43809;SDS011;29440;48.208;11.162;2023-03-04T02:57:49;54.72;;;20.83;;
43809;SDS011;29440;48.208;11.162;2023-03-04T03:00:14;57.60;;;22.90;;
43809;SDS011;29440;48.208;11.162;2023-03-04T03:02:40;59.72;;;21.30;;
43809;SDS011;29440;48.208;11.162;2023-03-04T03:05:06;60.75;;;23.20;;
43809;SDS011;29440;48.208;11.162;2023-03-04T03:07:32;56.50;;;21.23;;
43809;SDS011;29440;48.208;11.162;2023-03-04T03:09:59;61.08;;;23.60;;
43809;SDS011;29440;48.208;11.162;2023-03-04T03:12:25;61.35;;;21.88;;
43809;SDS011;29440;48.208;11.162;2023-03-04T03:14:51;57.42;;;21.67;;
43809;SDS011;29440;48.208;11.162;2023-03-04T03:17:16;53.92;;;21.27;;
43809;SDS011;29440;48.208;11.162;2023-03-04T03:19:42;55.20;;;21.17;;
43809;SDS011;29440;48.208;11.162;2023-03-04T03:22:07;58.72;;;20.83;;
43809;SDS011;29440;48.208;11.162;2023-03-04T03:24:36;58.10;;;22.20;;
43809;SDS011;29440;48.208;11.162;2023-03-04T03:27:04;60.40;;;21.58;;
43809;SDS011;29440;48.208;11.162;2023-03-04T03:29:33;55.25;;;21.50;;
43809;SDS011;29440;48.208;11.162;2023-03-04T03:31:59;62.47;;;21.73;;
43809;SDS011;29440;48.208;11.162;2023-03-04T03:34:24;61.55;;;23.17;;
43809;SDS011;29440;48.208;11.162;2023-03-04T03:36:53;56.88;;;21.38;;
43809;SDS011;29440;48.208;11.162;2023-03-04T03:39:19;60.05;;;22.05;;
43809;SDS011;29440;48.208;11.162;2023-03-04T03:41:45;61.53;;;23.45;;
43809;SDS011;29440;48.208;11.162;2023-03-04T03:44:10;50.25;;;20.90;;
43809;SDS011;29440;48.208;11.162;2023-03-04T03:46:36;51.40;;;20.33;;
43809;SDS011;29440;48.208;11.162;2023-03-04T03:49:01;59.42;;;21.88;;
43809;SDS011;29440;48.208;11.162;2023-03-04T03:51:27;56.90;;;21.85;;
43809;SDS011;29440;48.208;11.162;2023-03-04T03:53:53;61.80;;;23.67;;
43809;SDS011;29440;48.208;11.162;2023-03-04T03:56:18;56.10;;;21.50;;
43809;SDS011;29440;48.208;11.162;2023-03-04T03:58:44;56.13;;;21.00;;
43809;SDS011;29440;48.208;11.162;2023-03-04T04:01:09;55.17;;;21.20;;
43809;SDS011;29440;48.208;11.162;2023-03-04T04:03:35;57.72;;;22.00;;
43809;SDS011;29440;48.208;11.162;2023-03-04T04:06:01;53.38;;;20.92;;
43809;SDS011;29440;48.208;11.162;2023-03-04T04:08:27;52.72;;;20.75;;
43809;SDS011;29440;48.208;11.162;2023-03-04T04:10:52;55.55;;;21.02;;
43809;SDS011;29440;48.208;11.162;2023-03-04T04:13:18;55.78;;;21.75;;
43809;SDS011;29440;48.208;11.162;2023-03-04T04:15:43;55.78;;;21.20;;
43809;SDS011;29440;48.208;11.162;2023-03-04T04:18:09;53.65;;;21.88;;
43809;SDS011;29440;48.208;11.162;2023-03-04T04:20:35;58.33;;;22.58;;
43809;SDS011;29440;48.208;11.162;2023-03-04T04:23:01;58.03;;;21.65;;
43809;SDS011;29440;48.208;11.162;2023-03-04T04:25:27;54.80;;;21.02;;
43809;SDS011;29440;48.208;11.162;2023-03-04T04:27:53;52.63;;;19.65;;
43809;SDS011;29440;48.208;11.162;2023-03-04T04:30:19;53.50;;;20.80;;
43809;SDS011;29440;48.208;11.162;2023-03-04T04:32:44;55.33;;;20.10;;
43809;SDS011;29440;48.208;11.162;2023-03-04T04:35:10;58.30;;;21.70;;
43809;SDS011;29440;48.208;11.162;2023-03-04T04:37:36;61.47;;;20.88;;
43809;SDS011;29440;48.208;11.162;2023-03-04T04:40:02;51.42;;;20.33;;
43809;SDS011;29440;48.208;11.162;2023-03-04T04:42:28;54.00;;;20.17;;
43809;SDS011;29440;48.208;11.162;2023-03-04T04:44:53;57.00;;;21.10;;
43809;SDS011;29440;48.208;11.162;2023-03-04T04:47:21;61.10;;;21.70;;
43809;SDS011;29440;48.208;11.162;2023-03-04T04:49:46;52.25;;;21.42;;
43809;SDS011;29440;48.208;11.162;2023-03-04T04:52:12;56.58;;;21.90;;
43809;SDS011;29440;48.208;11.162;2023-03-04T04:54:38;52.20;;;20.63;;
43809;SDS011;29440;48.208;11.162;2023-03-04T04:57:03;52.53;;;20.95;;
43809;SDS011;29440;48.208;11.162;2023-03-04T04:59:29;56.03;;;22.80;;
43809;SDS011;29440;48.208;11.162;2023-03-04T05:01:54;51.38;;;18.65;;
43809;SDS011;29440;48.208;11.162;2023-03-04T05:04:20;55.22;;;21.27;;
43809;SDS011;29440;48.208;11.162;2023-03-04T05:06:45;59.03;;;20.58;;
43809;SDS011;29440;48.208;11.162;2023-03-04T05:09:11;50.22;;;21.05;;
43809;SDS011;29440;48.208;11.162;2023-03-04T05:11:37;53.20;;;20.52;;
43809;SDS011;29440;48.208;11.162;2023-03-04T05:14:02;53.05;;;20.50;;
43809;SDS011;29440;48.208;11.162;2023-03-04T05:16:28;54.05;;;21.05;;
43809;SDS011;29440;48.208;11.162;2023-03-04T05:18:53;52.38;;;21.38;;
43809;SDS011;29440;48.208;11.162;2023-03-04T05:21:19;61.45;;;22.50;;
43809;SDS011;29440;48.208;11.162;2023-03-04T05:23:45;57.47;;;22.67;;
43809;SDS011;29440;48.208;11.162;2023-03-04T05:26:11;56.50;;;22.27;;
43809;SDS011;29440;48.208;11.162;2023-03-04T05:28:39;61.65;;;22.65;;
43809;SDS011;29440;48.208;11.162;2023-03-04T05:31:05;56.53;;;23.48;;
43809;SDS011;29440;48.208;11.162;2023-03-04T05:33:31;57.40;;;21.35;;
43809;SDS011;29440;48.208;11.162;2023-03-04T05:35:57;51.63;;;22.27;;
43809;SDS011;29440;48.208;11.162;2023-03-04T05:38:23;57.92;;;22.63;;
43809;SDS011;29440;48.208;11.162;2023-03-04T05:40:54;55.67;;;19.90;;
43809;SDS011;29440;48.208;11.162;2023-03-04T05:43:24;47.83;;;20.13;;
43809;SDS011;29440;48.208;11.162;2023-03-04T05:45:50;51.55;;;20.98;;
43809;SDS011;29440;48.208;11.162;2023-03-04T05:48:15;55.47;;;19.42;;
43809;SDS011;29440;48.208;11.162;2023-03-04T05:50:41;49.70;;;19.40;;
43809;SDS011;29440;48.208;11.162;2023-03-04T05:53:06;52.08;;;20.67;;
43809;SDS011;29440;48.208;11.162;2023-03-04T05:55:32;47.75;;;20.45;;
43809;SDS011;29440;48.208;11.162;2023-03-04T05:57:57;53.22;;;20.83;;
43809;SDS011;29440;48.208;11.162;2023-03-04T06:00:23;53.80;;;21.15;;
43809;SDS011;29440;48.208;11.162;2023-03-04T06:02:49;57.47;;;21.85;;
43809;SDS011;29440;48.208;11.162;2023-03-04T06:05:15;55.10;;;22.10;;
43809;SDS011;29440;48.208;11.162;2023-03-04T06:07:41;58.67;;;23.25;;
43809;SDS011;29440;48.208;11.162;2023-03-04T06:10:08;55.20;;;20.20;;
43809;SDS011;29440;48.208;11.162;2023-03-04T06:12:35;54.28;;;21.08;;
43809;SDS011;29440;48.208;11.162;2023-03-04T06:15:00;53.80;;;22.05;;
43809;SDS011;29440;48.208;11.162;2023-03-04T06:17:27;60.50;;;22.40;;
43809;SDS011;29440;48.208;11.162;2023-03-04T06:19:54;56.15;;;23.00;;
43809;SDS011;29440;48.208;11.162;2023-03-04T06:22:20;55.33;;;22.95;;
43809;SDS011;29440;48.208;11.162;2023-03-04T06:24:45;52.92;;;22.80;;
43809;SDS011;29440;48.208;11.162;2023-03-04T06:27:11;53.72;;;22.85;;
43809;SDS011;29440;48.208;11.162;2023-03-04T06:29:37;53.65;;;21.52;;
43809;SDS011;29440;48.208;11.162;2023-03-04T06:32:03;55.70;;;22.98;;
43809;SDS011;29440;48.208;11.162;2023-03-04T06:34:29;48.88;;;21.20;;
43809;SDS011;29440;48.208;11.162;2023-03-04T06:36:55;52.72;;;21.73;;
43809;SDS011;29440;48.208;11.162;2023-03-04T06:39:20;53.63;;;21.92;;
43809;SDS011;29440;48.208;11.162;2023-03-04T06:41:46;54.53;;;22.17;;
43809;SDS011;29440;48.208;11.162;2023-03-04T06:44:11;45.20;;;19.23;;
43809;SDS011;29440;48.208;11.162;2023-03-04T06:46:37;49.22;;;19.77;;
43809;SDS011;29440;48.208;11.162;2023-03-04T06:49:02;45.67;;;18.83;;
43809;SDS011;29440;48.208;11.162;2023-03-04T06:51:28;44.67;;;18.10;;
43809;SDS011;29440;48.208;11.162;2023-03-04T06:53:54;41.78;;;18.85;;
43809;SDS011;29440;48.208;11.162;2023-03-04T06:56:20;58.35;;;21.58;;
43809;SDS011;29440;48.208;11.162;2023-03-04T06:58:45;45.38;;;19.83;;
43809;SDS011;29440;48.208;11.162;2023-03-04T07:01:15;49.10;;;20.27;;
43809;SDS011;29440;48.208;11.162;2023-03-04T07:03:51;46.67;;;19.67;;
43809;SDS011;29440;48.208;11.162;2023-03-04T07:06:19;46.22;;;21.52;;
43809;SDS011;29440;48.208;11.162;2023-03-04T07:08:47;46.92;;;21.23;;
43809;SDS011;29440;48.208;11.162;2023-03-04T07:11:13;46.00;;;20.58;;
43809;SDS011;29440;48.208;11.162;2023-03-04T07:13:39;47.40;;;22.60;;
43809;SDS011;29440;48.208;11.162;2023-03-04T07:16:17;47.55;;;21.48;;
43809;SDS011;29440;48.208;11.162;2023-03-04T07:18:45;48.45;;;20.60;;
43809;SDS011;29440;48.208;11.162;2023-03-04T07:21:26;49.60;;;22.02;;
43809;SDS011;29440;48.208;11.162;2023-03-04T07:23:52;46.03;;;20.77;;
43809;SDS011;29440;48.208;11.162;2023-03-04T07:26:18;47.70;;;22.00;;
43809;SDS011;29440;48.208;11.162;2023-03-04T07:28:45;45.13;;;21.38;;
43809;SDS011;29440;48.208;11.162;2023-03-04T07:31:23;46.97;;;22.55;;
43809;SDS011;29440;48.208;11.162;2023-03-04T07:34:01;42.92;;;22.65;;
43809;SDS011;29440;48.208;11.162;2023-03-04T07:36:29;47.25;;;23.05;;
43809;SDS011;29440;48.208;11.162;2023-03-04T07:38:55;43.45;;;22.80;;
43809;SDS011;29440;48.208;11.162;2023-03-04T07:41:21;44.30;;;23.35;;
43809;SDS011;29440;48.208;11.162;2023-03-04T07:43:48;46.50;;;23.35;;
43809;SDS011;29440;48.208;11.162;2023-03-04T07:46:14;46.92;;;23.85;;
43809;SDS011;29440;48.208;11.162;2023-03-04T07:48:41;43.85;;;23.42;;
43809;SDS011;29440;48.208;11.162;2023-03-04T07:51:17;49.28;;;25.73;;
43809;SDS011;29440;48.208;11.162;2023-03-04T07:53:45;42.45;;;22.02;;
43809;SDS011;29440;48.208;11.162;2023-03-04T07:56:14;47.78;;;25.60;;
43809;SDS011;29440;48.208;11.162;2023-03-04T07:58:42;45.65;;;23.63;;
43809;SDS011;29440;48.208;11.162;2023-03-04T08:01:08;45.97;;;24.67;;
43809;SDS011;29440;48.208;11.162;2023-03-04T08:03:38;41.90;;;23.58;;
43809;SDS011;29440;48.208;11.162;2023-03-04T08:06:05;46.33;;;25.73;;
43809;SDS011;29440;48.208;11.162;2023-03-04T08:08:31;43.65;;;25.02;;
43809;SDS011;29440;48.208;11.162;2023-03-04T08:10:57;39.05;;;22.77;;
43809;SDS011;29440;48.208;11.162;2023-03-04T08:13:22;42.03;;;22.92;;
43809;SDS011;29440;48.208;11.162;2023-03-04T08:15:48;42.58;;;24.70;;
43809;SDS011;29440;48.208;11.162;2023-03-04T08:18:13;42.00;;;24.05;;
43809;SDS011;29440;48.208;11.162;2023-03-04T08:20:42;40.80;;;22.77;;
43809;SDS011;29440;48.208;11.162;2023-03-04T08:23:11;39.28;;;22.95;;
43809;SDS011;29440;48.208;11.162;2023-03-04T08:25:39;38.45;;;22.42;;
43809;SDS011;29440;48.208;11.162;2023-03-04T08:28:06;44.42;;;23.30;;
43809;SDS011;29440;48.208;11.162;2023-03-04T08:30:32;37.65;;;21.75;;
43809;SDS011;29440;48.208;11.162;2023-03-04T08:33:00;36.92;;;22.13;;
43809;SDS011;29440;48.208;11.162;2023-03-04T08:35:26;39.85;;;21.77;;
43809;SDS011;29440;48.208;11.162;2023-03-04T08:37:52;40.53;;;21.02;;
43809;SDS011;29440;48.208;11.162;2023-03-04T08:40:17;36.83;;;20.30;;
43809;SDS011;29440;48.208;11.162;2023-03-04T08:42:43;34.22;;;18.65;;
43809;SDS011;29440;48.208;11.162;2023-03-04T08:45:09;31.15;;;18.83;;
43809;SDS011;29440;48.208;11.162;2023-03-04T08:47:35;34.08;;;19.27;;
43809;SDS011;29440;48.208;11.162;2023-03-04T08:50:00;33.75;;;18.80;;
43809;SDS011;29440;48.208;11.162;2023-03-04T08:52:27;39.35;;;19.75;;
43809;SDS011;29440;48.208;11.162;2023-03-04T08:54:54;33.10;;;19.02;;
43809;SDS011;29440;48.208;11.162;2023-03-04T08:57:20;33.03;;;19.58;;
43809;SDS011;29440;48.208;11.162;2023-03-04T08:59:45;31.23;;;19.10;;
43809;SDS011;29440;48.208;11.162;2023-03-04T09:02:11;37.15;;;20.33;;
43809;SDS011;29440;48.208;11.162;2023-03-04T09:04:36;36.22;;;20.58;;
43809;SDS011;29440;48.208;11.162;2023-03-04T09:07:02;33.17;;;19.17;;
43809;SDS011;29440;48.208;11.162;2023-03-04T09:09:27;31.23;;;17.75;;
43809;SDS011;29440;48.208;11.162;2023-03-04T09:11:53;34.65;;;19.88;;
43809;SDS011;29440;48.208;11.162;2023-03-04T09:14:18;33.03;;;18.95;;
43809;SDS011;29440;48.208;11.162;2023-03-04T09:16:44;32.75;;;18.00;;
43809;SDS011;29440;48.208;11.162;2023-03-04T09:19:09;32.83;;;19.15;;
43809;SDS011;29440;48.208;11.162;2023-03-04T09:21:35;31.83;;;18.70;;
43809;SDS011;29440;48.208;11.162;2023-03-04T09:24:00;33.85;;;19.88;;
43809;SDS011;29440;48.208;11.162;2023-03-04T09:26:27;29.40;;;17.05;;
43809;SDS011;29440;48.208;11.162;2023-03-04T09:28:54;33.78;;;18.77;;
43809;SDS011;29440;48.208;11.162;2023-03-04T09:31:21;33.05;;;18.50;;
43809;SDS011;29440;48.208;11.162;2023-03-04T09:33:47;36.42;;;19.65;;
43809;SDS011;29440;48.208;11.162;2023-03-04T09:36:14;35.85;;;18.77;;
43809;SDS011;29440;48.208;11.162;2023-03-04T09:38:40;36.58;;;19.45;;
43809;SDS011;29440;48.208;11.162;2023-03-04T09:41:07;33.33;;;19.08;;
43809;SDS011;29440;48.208;11.162;2023-03-04T09:43:34;42.53;;;20.45;;
43809;SDS011;29440;48.208;11.162;2023-03-04T09:46:07;36.30;;;19.25;;
43809;SDS011;29440;48.208;11.162;2023-03-04T09:48:48;34.15;;;19.00;;
43809;SDS011;29440;48.208;11.162;2023-03-04T09:54:07;31.00;;;18.33;;
43809;SDS011;29440;48.208;11.162;2023-03-04T09:56:38;39.22;;;20.00;;
43809;SDS011;29440;48.208;11.162;2023-03-04T10:05:05;37.50;;;19.33;;
43809;SDS011;29440;48.208;11.162;2023-03-04T10:07:37;36.85;;;18.40;;
43809;SDS011;29440;48.208;11.162;2023-03-04T10:10:15;35.83;;;18.65;;
43809;SDS011;29440;48.208;11.162;2023-03-04T10:12:45;37.25;;;19.83;;
43809;SDS011;29440;48.208;11.162;2023-03-04T10:18:01;38.22;;;20.58;;
43809;SDS011;29440;48.208;11.162;2023-03-04T10:20:42;33.83;;;17.95;;
43809;SDS011;29440;48.208;11.162;2023-03-04T10:23:16;34.92;;;19.20;;
43809;SDS011;29440;48.208;11.162;2023-03-04T10:25:45;33.88;;;19.00;;
43809;SDS011;29440;48.208;11.162;2023-03-04T10:28:16;32.08;;;16.73;;
43809;SDS011;29440;48.208;11.162;2023-03-04T10:31:01;34.38;;;18.48;;
43809;SDS011;29440;48.208;11.162;2023-03-04T10:33:36;32.13;;;17.42;;
43809;SDS011;29440;48.208;11.162;2023-03-04T10:39:08;29.15;;;15.02;;
43809;SDS011;29440;48.208;11.162;2023-03-04T10:41:36;30.17;;;15.50;;
43809;SDS011;29440;48.208;11.162;2023-03-04T10:46:36;25.55;;;12.70;;
43809;SDS011;29440;48.208;11.162;2023-03-04T10:49:02;27.77;;;13.10;;
43809;SDS011;29440;48.208;11.162;2023-03-04T10:51:28;28.10;;;15.02;;
43809;SDS011;29440;48.208;11.162;2023-03-04T10:53:59;30.00;;;13.98;;
43809;SDS011;29440;48.208;11.162;2023-03-04T10:56:42;27.17;;;12.70;;
43809;SDS011;29440;48.208;11.162;2023-03-04T10:59:30;30.52;;;14.50;;
43809;SDS011;29440;48.208;11.162;2023-03-04T11:01:58;24.85;;;12.63;;
43809;SDS011;29440;48.208;11.162;2023-03-04T11:04:26;28.70;;;13.95;;
43809;SDS011;29440;48.208;11.162;2023-03-04T11:06:56;28.98;;;14.90;;
43809;SDS011;29440;48.208;11.162;2023-03-04T11:09:26;26.45;;;13.32;;
43809;SDS011;29440;48.208;11.162;2023-03-04T11:12:04;25.45;;;13.50;;
43809;SDS011;29440;48.208;11.162;2023-03-04T11:17:14;24.77;;;13.05;;
43809;SDS011;29440;48.208;11.162;2023-03-04T11:22:29;28.20;;;14.73;;
43809;SDS011;29440;48.208;11.162;2023-03-04T11:24:58;33.03;;;15.50;;
43809;SDS011;29440;48.208;11.162;2023-03-04T11:27:33;30.48;;;15.18;;
43809;SDS011;29440;48.208;11.162;2023-03-04T11:33:07;32.65;;;15.93;;
43809;SDS011;29440;48.208;11.162;2023-03-04T11:35:37;32.78;;;15.63;;
43809;SDS011;29440;48.208;11.162;2023-03-04T11:38:18;30.83;;;14.40;;
43809;SDS011;29440;48.208;11.162;2023-03-04T11:41:01;32.55;;;15.75;;
43809;SDS011;29440;48.208;11.162;2023-03-04T11:43:32;29.00;;;15.55;;
43809;SDS011;29440;48.208;11.162;2023-03-04T11:46:14;35.67;;;17.15;;
43809;SDS011;29440;48.208;11.162;2023-03-04T12:06:05;34.20;;;15.38;;
43809;SDS011;29440;48.208;11.162;2023-03-04T12:11:21;35.65;;;16.20;;
43809;SDS011;29440;48.208;11.162;2023-03-04T12:13:57;33.85;;;16.52;;
43809;SDS011;29440;48.208;11.162;2023-03-04T12:16:40;33.17;;;16.33;;
43809;SDS011;29440;48.208;11.162;2023-03-04T12:19:22;32.67;;;15.57;;
43809;SDS011;29440;48.208;11.162;2023-03-04T12:24:54;33.10;;;14.93;;
43809;SDS011;29440;48.208;11.162;2023-03-04T12:41:41;28.00;;;13.10;;
43809;SDS011;29440;48.208;11.162;2023-03-04T12:44:26;27.63;;;12.88;;
43809;SDS011;29440;48.208;11.162;2023-03-04T12:47:11;28.95;;;13.23;;
43809;SDS011;29440;48.208;11.162;2023-03-04T12:49:59;29.08;;;12.98;;
43809;SDS011;29440;48.208;11.162;2023-03-04T12:55:37;27.02;;;13.25;;
43809;SDS011;29440;48.208;11.162;2023-03-04T12:58:26;29.95;;;15.18;;
43809;SDS011;29440;48.208;11.162;2023-03-04T13:00:56;28.55;;;14.10;;
43809;SDS011;29440;48.208;11.162;2023-03-04T13:09:28;29.67;;;13.50;;
43809;SDS011;29440;48.208;11.162;2023-03-04T13:12:10;28.08;;;13.25;;
43809;SDS011;29440;48.208;11.162;2023-03-04T13:14:41;28.40;;;12.90;;
43809;SDS011;29440;48.208;11.162;2023-03-04T13:17:51;30.17;;;13.60;;
43809;SDS011;29440;48.208;11.162;2023-03-04T13:28:21;24.60;;;12.75;;
43809;SDS011;29440;48.208;11.162;2023-03-04T13:43:43;25.15;;;12.52;;
43809;SDS011;29440;48.208;11.162;2023-03-04T13:51:18;23.75;;;11.80;;
43809;SDS011;29440;48.208;11.162;2023-03-04T13:58:42;25.20;;;11.73;;
43809;SDS011;29440;48.208;11.162;2023-03-04T14:01:25;23.10;;;11.82;;
43809;SDS011;29440;48.208;11.162;2023-03-04T14:03:56;24.48;;;11.40;;
43809;SDS011;29440;48.208;11.162;2023-03-04T14:06:24;24.60;;;11.55;;
43809;SDS011;29440;48.208;11.162;2023-03-04T14:08:54;23.35;;;10.98;;
43809;SDS011;29440;48.208;11.162;2023-03-04T14:11:26;23.63;;;11.00;;
43809;SDS011;29440;48.208;11.162;2023-03-04T14:14:11;26.02;;;11.52;;
43809;SDS011;29440;48.208;11.162;2023-03-04T14:16:50;20.80;;;10.00;;
43809;SDS011;29440;48.208;11.162;2023-03-04T14:21:50;25.80;;;11.52;;
43809;SDS011;29440;48.208;11.162;2023-03-04T14:24:16;23.20;;;11.70;;
43809;SDS011;29440;48.208;11.162;2023-03-04T14:26:43;22.55;;;10.13;;
43809;SDS011;29440;48.208;11.162;2023-03-04T14:29:19;21.25;;;10.30;;
43809;SDS011;29440;48.208;11.162;2023-03-04T14:31:46;20.75;;;10.10;;
43809;SDS011;29440;48.208;11.162;2023-03-04T14:34:15;23.50;;;10.07;;
43809;SDS011;29440;48.208;11.162;2023-03-04T14:36:50;25.02;;;10.98;;
43809;SDS011;29440;48.208;11.162;2023-03-04T14:39:16;18.42;;;9.32;;
43809;SDS011;29440;48.208;11.162;2023-03-04T14:41:42;22.50;;;9.95;;
43809;SDS011;29440;48.208;11.162;2023-03-04T14:46:56;23.67;;;10.57;;
43809;SDS011;29440;48.208;11.162;2023-03-04T14:49:25;21.15;;;9.55;;
43809;SDS011;29440;48.208;11.162;2023-03-04T14:51:52;21.45;;;9.98;;
43809;SDS011;29440;48.208;11.162;2023-03-04T14:57:00;23.77;;;10.27;;
43809;SDS011;29440;48.208;11.162;2023-03-04T14:59:43;20.27;;;9.80;;
43809;SDS011;29440;48.208;11.162;2023-03-04T15:02:16;20.73;;;9.85;;
43809;SDS011;29440;48.208;11.162;2023-03-04T15:04:54;23.90;;;10.18;;
43809;SDS011;29440;48.208;11.162;2023-03-04T15:07:28;22.52;;;9.57;;
43809;SDS011;29440;48.208;11.162;2023-03-04T15:09:57;23.70;;;9.77;;
43809;SDS011;29440;48.208;11.162;2023-03-04T15:12:25;25.83;;;12.02;;
43809;SDS011;29440;48.208;11.162;2023-03-04T15:14:56;24.13;;;10.98;;
43809;SDS011;29440;48.208;11.162;2023-03-04T15:17:31;28.60;;;11.48;;
43809;SDS011;29440;48.208;11.162;2023-03-04T15:22:35;20.70;;;11.18;;
43809;SDS011;29440;48.208;11.162;2023-03-04T15:25:04;19.65;;;9.40;;
43809;SDS011;29440;48.208;11.162;2023-03-04T15:27:29;22.23;;;10.00;;
43809;SDS011;29440;48.208;11.162;2023-03-04T15:29:56;23.40;;;11.13;;
43809;SDS011;29440;48.208;11.162;2023-03-04T15:32:25;24.48;;;10.93;;
43809;SDS011;29440;48.208;11.162;2023-03-04T15:34:51;21.80;;;9.43;;
43809;SDS011;29440;48.208;11.162;2023-03-04T15:37:17;23.95;;;9.88;;
43809;SDS011;29440;48.208;11.162;2023-03-04T15:39:45;21.75;;;9.20;;
43809;SDS011;29440;48.208;11.162;2023-03-04T15:42:11;21.98;;;8.75;;
43809;SDS011;29440;48.208;11.162;2023-03-04T15:44:38;21.45;;;9.27;;
43809;SDS011;29440;48.208;11.162;2023-03-04T15:47:04;20.92;;;9.55;;
43809;SDS011;29440;48.208;11.162;2023-03-04T15:49:32;21.00;;;8.65;;
43809;SDS011;29440;48.208;11.162;2023-03-04T15:51:58;21.17;;;8.68;;
43809;SDS011;29440;48.208;11.162;2023-03-04T15:54:27;19.92;;;9.45;;
43809;SDS011;29440;48.208;11.162;2023-03-04T15:56:53;20.63;;;9.57;;
43809;SDS011;29440;48.208;11.162;2023-03-04T15:59:19;23.40;;;9.90;;
43809;SDS011;29440;48.208;11.162;2023-03-04T16:01:45;20.65;;;9.43;;
43809;SDS011;29440;48.208;11.162;2023-03-04T16:04:14;23.13;;;9.45;;
43809;SDS011;29440;48.208;11.162;2023-03-04T16:06:43;21.23;;;9.23;;
43809;SDS011;29440;48.208;11.162;2023-03-04T16:09:11;23.73;;;10.05;;
43809;SDS011;29440;48.208;11.162;2023-03-04T16:11:40;23.75;;;9.75;;
43809;SDS011;29440;48.208;11.162;2023-03-04T16:14:10;53.92;;;19.45;;